createdAt,value
2022-10-06T00:00:00.867Z,14.34
2022-10-06T00:03:02.693Z,14.42
2022-10-06T00:06:05.315Z,14.47
2022-10-06T00:09:06.737Z,14.50
2022-10-06T00:12:09.280Z,14.42
2022-10-06T00:15:13.275Z,14.20
2022-10-06T00:18:14.706Z,14.06
2022-10-06T00:21:16.626Z,13.93
2022-10-06T00:24:18.531Z,13.84
2022-10-06T00:27:20.219Z,13.87
2022-10-06T00:30:24.500Z,13.79
2022-10-06T00:33:25.888Z,13.79
2022-10-06T00:36:28.281Z,13.77
2022-10-06T00:39:29.715Z,13.79
2022-10-06T00:42:32.893Z,13.78
2022-10-06T00:45:48.602Z,13.79
2022-10-06T00:48:55.598Z,13.74
2022-10-06T00:52:06.538Z,13.73
2022-10-06T00:55:11.228Z,13.77
2022-10-06T00:58:13.698Z,13.80
2022-10-06T01:01:15.153Z,13.71
2022-10-06T01:04:18.110Z,13.65
2022-10-06T01:07:21.226Z,13.60
2022-10-06T01:10:22.770Z,13.63
2022-10-06T01:13:26.274Z,13.69
2022-10-06T01:16:27.694Z,13.70
2022-10-06T01:19:50.807Z,13.67
2022-10-06T01:23:10.055Z,13.53
2022-10-06T01:26:14.406Z,13.47
2022-10-06T01:29:16.220Z,13.47
2022-10-06T01:32:17.825Z,13.46
2022-10-06T01:35:19.410Z,13.27
2022-10-06T01:38:21.901Z,13.21
2022-10-06T01:41:27.696Z,13.17
2022-10-06T01:44:29.642Z,13.19
2022-10-06T01:47:31.218Z,13.24
2022-10-06T01:50:33.795Z,13.31
2022-10-06T01:53:35.249Z,13.34
2022-10-06T01:56:36.657Z,13.38
2022-10-06T01:59:38.222Z,13.28
2022-10-06T02:02:40.678Z,13.17
2022-10-06T02:05:42.250Z,13.23
2022-10-06T02:08:43.798Z,13.29
2022-10-06T02:11:45.281Z,13.29
2022-10-06T02:14:46.763Z,13.24
2022-10-06T02:17:48.602Z,13.24
2022-10-06T02:20:50.392Z,13.25
2022-10-06T02:23:51.940Z,13.29
2022-10-06T02:26:54.064Z,13.36
2022-10-06T02:29:55.829Z,13.33
2022-10-06T02:32:57.354Z,13.37
2022-10-06T02:35:59.401Z,13.45
2022-10-06T02:39:03.193Z,13.48
2022-10-06T02:42:05.386Z,13.51
2022-10-06T02:45:07.305Z,13.53
2022-10-06T02:48:11.494Z,13.55
2022-10-06T02:51:19.016Z,13.55
2022-10-06T02:54:21.683Z,13.58
2022-10-06T02:57:23.149Z,13.66
2022-10-06T03:00:24.723Z,13.71
2022-10-06T03:03:26.136Z,13.76
2022-10-06T03:06:30.297Z,13.81
2022-10-06T03:09:41.690Z,13.87
2022-10-06T03:12:43.461Z,13.90
2022-10-06T03:15:44.941Z,13.97
2022-10-06T03:18:49.296Z,14.03
2022-10-06T03:21:50.766Z,14.11
2022-10-06T03:24:52.177Z,14.19
2022-10-06T03:27:54.022Z,14.27
2022-10-06T03:31:01.489Z,14.31
2022-10-06T03:34:03.542Z,14.38
2022-10-06T03:37:05.178Z,14.43
2022-10-06T03:40:07.040Z,14.53
2022-10-06T03:43:09.493Z,14.74
2022-10-06T03:46:14.109Z,14.89
2022-10-06T03:49:15.618Z,14.95
2022-10-06T03:52:18.570Z,14.93
2022-10-06T03:55:21.970Z,14.93
2022-10-06T03:58:23.485Z,14.95
2022-10-06T04:01:42.781Z,14.98
2022-10-06T04:04:46.438Z,15.08
2022-10-06T04:07:47.919Z,15.17
2022-10-06T04:10:49.578Z,15.20
2022-10-06T04:13:56.600Z,15.17
2022-10-06T04:16:59.266Z,15.24
2022-10-06T04:20:10.272Z,15.20
2022-10-06T04:23:12.326Z,15.23
2022-10-06T04:26:17.025Z,15.24
2022-10-06T04:29:22.045Z,15.23
2022-10-06T04:32:29.504Z,15.35
2022-10-06T04:35:30.883Z,15.39
2022-10-06T04:38:34.061Z,15.36
2022-10-06T04:41:36.850Z,15.35
2022-10-06T04:44:38.782Z,15.32
2022-10-06T04:47:41.201Z,15.35
2022-10-06T04:50:43.518Z,15.38
2022-10-06T04:53:48.466Z,15.35
2022-10-06T04:56:51.000Z,15.26
2022-10-06T05:00:15.188Z,15.21
2022-10-06T05:03:19.571Z,15.15
2022-10-06T05:06:24.097Z,15.12
2022-10-06T05:09:26.391Z,15.13
2022-10-06T05:12:31.008Z,15.13
2022-10-06T05:15:32.768Z,15.12
2022-10-06T05:18:35.464Z,15.12
2022-10-06T05:21:37.567Z,15.12
2022-10-06T05:24:40.520Z,15.15
2022-10-06T05:27:41.896Z,15.13
2022-10-06T05:30:43.300Z,15.14
2022-10-06T05:33:44.950Z,15.14
2022-10-06T05:36:46.967Z,15.14
2022-10-06T05:39:48.620Z,15.15
2022-10-06T05:42:50.901Z,15.16
2022-10-06T05:45:54.110Z,15.14
2022-10-06T05:48:58.405Z,15.20
2022-10-06T05:52:02.471Z,15.26
2022-10-06T05:55:07.216Z,15.29
2022-10-06T05:58:08.807Z,15.32
2022-10-06T06:01:12.860Z,15.39
2022-10-06T06:04:14.724Z,15.40
2022-10-06T06:07:21.374Z,15.41
2022-10-06T06:10:23.226Z,15.38
2022-10-06T06:13:24.953Z,15.43
2022-10-06T06:16:36.974Z,15.44
2022-10-06T06:19:38.493Z,15.48
2022-10-06T06:22:41.195Z,15.45
2022-10-06T06:25:44.176Z,15.44
2022-10-06T06:28:47.493Z,15.43
2022-10-06T06:31:51.239Z,15.54
2022-10-06T06:34:52.749Z,15.61
2022-10-06T06:37:54.398Z,15.67
2022-10-06T06:40:56.312Z,15.75
2022-10-06T06:44:00.025Z,15.82
2022-10-06T06:47:10.068Z,15.91
2022-10-06T06:50:15.053Z,15.97
2022-10-06T06:53:16.894Z,16.04
2022-10-06T06:56:21.795Z,16.12
2022-10-06T06:59:23.330Z,16.14
2022-10-06T07:02:29.734Z,16.07
2022-10-06T07:05:32.220Z,16.09
2022-10-06T07:08:33.621Z,16.18
2022-10-06T07:11:39.737Z,16.27
2022-10-06T07:15:07.368Z,16.38
2022-10-06T07:18:32.937Z,16.50
2022-10-06T07:21:53.134Z,16.53
2022-10-06T07:25:06.982Z,16.55
2022-10-06T07:28:12.173Z,16.61
2022-10-06T07:31:17.593Z,16.75
2022-10-06T07:34:19.136Z,16.82
2022-10-06T07:37:20.800Z,16.88
2022-10-06T07:40:22.717Z,16.84
2022-10-06T07:43:25.294Z,16.76
2022-10-06T07:46:27.516Z,16.74
2022-10-06T07:49:34.731Z,16.81
2022-10-06T07:52:39.065Z,16.86
2022-10-06T07:55:44.447Z,16.99
2022-10-06T07:58:58.340Z,17.22
2022-10-06T08:01:59.826Z,17.22
2022-10-06T08:05:01.329Z,17.34
2022-10-06T08:08:02.758Z,17.51
2022-10-06T08:11:06.460Z,17.57
2022-10-06T08:14:07.852Z,17.55
2022-10-06T08:17:09.298Z,17.57
2022-10-06T08:20:12.253Z,17.45
2022-10-06T08:23:14.213Z,17.34
2022-10-06T08:26:17.944Z,17.33
2022-10-06T08:29:19.332Z,17.32
2022-10-06T08:32:21.588Z,17.37
2022-10-06T08:35:23.064Z,17.37
2022-10-06T08:38:24.564Z,17.36
2022-10-06T08:41:31.949Z,17.36
2022-10-06T08:44:44.434Z,17.35
2022-10-06T08:47:55.056Z,17.66
2022-10-06T08:51:21.637Z,17.73
2022-10-06T08:54:50.173Z,17.50
2022-10-06T08:58:18.047Z,17.64
2022-10-06T09:01:25.859Z,17.48
2022-10-06T09:04:32.081Z,17.42
2022-10-06T09:07:42.129Z,17.49
2022-10-06T09:11:02.075Z,17.26
2022-10-06T09:14:10.485Z,17.10
2022-10-06T09:17:18.791Z,17.44
2022-10-06T09:20:32.613Z,17.48
2022-10-06T09:23:48.094Z,17.72
2022-10-06T09:26:51.049Z,17.90
2022-10-06T09:29:53.199Z,17.70
2022-10-06T09:33:00.091Z,17.39
2022-10-06T09:36:09.744Z,17.13
2022-10-06T09:39:24.644Z,17.00
2022-10-06T09:42:29.618Z,17.18
2022-10-06T09:45:31.403Z,17.32
2022-10-06T09:48:32.899Z,17.68
2022-10-06T09:51:36.391Z,17.98
2022-10-06T09:54:41.654Z,18.02
2022-10-06T09:57:51.400Z,18.07
2022-10-06T10:01:02.925Z,18.04
2022-10-06T10:04:21.371Z,17.82
2022-10-06T10:07:29.272Z,17.88
2022-10-06T10:10:30.779Z,17.89
2022-10-06T10:13:43.217Z,18.05
2022-10-06T10:16:48.631Z,18.04
2022-10-06T10:19:55.363Z,17.86
2022-10-06T10:23:09.169Z,17.85
2022-10-06T10:26:35.763Z,17.83
2022-10-06T10:29:53.115Z,17.84
2022-10-06T10:33:11.864Z,18.03
2022-10-06T10:36:16.383Z,18.30
2022-10-06T10:39:29.708Z,18.57
2022-10-06T10:42:39.633Z,18.46
2022-10-06T10:45:49.113Z,18.54
2022-10-06T10:49:08.984Z,18.49
2022-10-06T10:52:22.972Z,18.66
2022-10-06T10:55:29.813Z,18.87
2022-10-06T10:58:36.580Z,18.78
2022-10-06T11:01:49.742Z,19.16
2022-10-06T11:04:57.725Z,19.53
2022-10-06T11:08:02.356Z,19.74
2022-10-06T11:11:12.262Z,19.92
2022-10-06T11:14:33.953Z,19.80
2022-10-06T11:17:43.994Z,19.52
2022-10-06T11:20:55.864Z,19.33
2022-10-06T11:24:03.251Z,19.09
2022-10-06T11:27:30.800Z,18.90
2022-10-06T11:30:37.958Z,18.63
2022-10-06T11:33:49.024Z,18.70
2022-10-06T11:36:50.341Z,18.90
2022-10-06T11:40:13.994Z,19.12
2022-10-06T11:43:52.972Z,19.17
2022-10-06T11:47:02.886Z,19.48
2022-10-06T11:50:42.590Z,19.52
2022-10-06T11:53:44.996Z,19.55
2022-10-06T11:56:46.547Z,19.54
2022-10-06T11:59:55.857Z,19.56
2022-10-06T12:03:29.462Z,19.71
2022-10-06T12:06:45.830Z,19.79
2022-10-06T12:09:52.471Z,19.51
2022-10-06T12:17:12.805Z,19.48
2022-10-06T12:20:38.866Z,19.76
2022-10-06T12:24:19.554Z,19.75
2022-10-06T12:27:30.426Z,19.85
2022-10-06T12:30:50.560Z,20.03
2022-10-06T12:33:52.472Z,19.86
2022-10-06T12:37:20.492Z,19.93
2022-10-06T12:40:48.940Z,20.00
2022-10-06T12:43:55.202Z,20.12
2022-10-06T12:47:03.866Z,20.00
2022-10-06T12:50:16.914Z,19.93
2022-10-06T12:53:27.682Z,19.85
2022-10-06T12:56:35.006Z,19.92
2022-10-06T12:59:38.403Z,19.96
2022-10-06T13:02:43.880Z,20.07
2022-10-06T13:05:55.946Z,19.99
2022-10-06T13:09:13.872Z,19.78
2022-10-06T13:12:23.410Z,19.84
2022-10-06T13:15:36.488Z,19.78
2022-10-06T13:18:37.907Z,19.80
2022-10-06T13:21:39.387Z,19.89
2022-10-06T13:24:40.943Z,19.96
2022-10-06T13:27:50.359Z,19.92
2022-10-06T13:34:15.040Z,19.88
2022-10-06T13:37:16.708Z,19.97
2022-10-06T13:40:45.895Z,20.07
2022-10-06T13:43:52.449Z,20.23
2022-10-06T13:46:59.285Z,20.20
2022-10-06T13:50:05.862Z,20.02
2022-10-06T13:53:23.451Z,20.05
2022-10-06T13:56:32.394Z,20.25
2022-10-06T13:59:36.939Z,20.45
2022-10-06T14:02:38.762Z,20.44
2022-10-06T14:05:42.219Z,20.55
2022-10-06T14:08:52.388Z,20.54
2022-10-06T14:12:02.805Z,20.48
2022-10-06T14:15:05.474Z,20.84
2022-10-06T14:18:07.068Z,21.07
2022-10-06T14:21:27.241Z,21.19
2022-10-06T14:24:28.924Z,21.24
2022-10-06T14:27:30.314Z,21.25
2022-10-06T14:30:31.696Z,21.44
2022-10-06T14:33:33.973Z,21.43
2022-10-06T14:36:39.509Z,20.98
2022-10-06T14:39:42.493Z,20.93
2022-10-06T14:42:43.973Z,21.09
2022-10-06T14:45:45.536Z,20.91
2022-10-06T14:48:47.002Z,20.83
2022-10-06T14:51:48.442Z,20.73
2022-10-06T14:54:50.704Z,20.81
2022-10-06T14:57:52.073Z,20.62
2022-10-06T15:00:53.478Z,20.44
2022-10-06T15:03:57.835Z,20.37
2022-10-06T15:07:17.810Z,20.46
2022-10-06T15:10:19.231Z,20.26
2022-10-06T15:13:20.702Z,20.22
2022-10-06T15:16:23.222Z,20.25
2022-10-06T15:19:24.908Z,20.18
2022-10-06T15:22:26.350Z,20.12
2022-10-06T15:25:46.077Z,20.02
2022-10-06T15:29:03.058Z,19.96
2022-10-06T15:32:06.016Z,19.86
2022-10-06T15:35:08.086Z,19.82
2022-10-06T15:38:09.529Z,19.85
2022-10-06T15:41:11.575Z,19.84
2022-10-06T15:44:14.016Z,19.77
2022-10-06T15:47:15.635Z,19.64
2022-10-06T15:50:18.938Z,19.62
2022-10-06T15:53:22.431Z,19.53
2022-10-06T15:56:28.949Z,19.30
2022-10-06T15:59:31.583Z,19.25
2022-10-06T16:02:35.679Z,19.26
2022-10-06T16:05:51.695Z,19.25
2022-10-06T16:08:54.735Z,19.16
2022-10-06T16:11:57.947Z,19.15
2022-10-06T16:14:59.388Z,19.13
2022-10-06T16:18:00.868Z,19.08
2022-10-06T16:21:02.324Z,19.00
2022-10-06T16:24:03.963Z,18.97
2022-10-06T16:27:05.494Z,18.92
2022-10-06T16:30:07.831Z,18.86
2022-10-06T16:33:09.258Z,18.78
2022-10-06T16:36:11.634Z,18.66
2022-10-06T16:39:15.681Z,18.60
2022-10-06T16:42:17.917Z,18.49
2022-10-06T16:45:19.344Z,18.38
2022-10-06T16:48:20.809Z,18.28
2022-10-06T16:51:25.229Z,18.25
2022-10-06T16:54:26.950Z,18.18
2022-10-06T16:57:28.774Z,18.08
2022-10-06T17:00:30.172Z,17.90
2022-10-06T17:03:31.636Z,17.70
2022-10-06T17:06:57.070Z,17.58
2022-10-06T17:10:18.868Z,17.51
2022-10-06T17:13:19.905Z,17.40
2022-10-06T17:16:27.437Z,17.28
2022-10-06T17:19:30.349Z,17.22
2022-10-06T17:22:31.749Z,17.17
2022-10-06T17:25:33.783Z,17.08
2022-10-06T17:28:36.204Z,17.02
2022-10-06T17:31:39.967Z,16.98
2022-10-06T17:34:41.400Z,16.91
2022-10-06T17:37:42.852Z,16.73
2022-10-06T17:40:44.772Z,16.66
2022-10-06T17:43:48.806Z,16.63
2022-10-06T17:46:52.784Z,16.64
2022-10-06T17:49:56.600Z,16.52
2022-10-06T17:52:59.264Z,16.36
2022-10-06T17:56:11.425Z,16.22
2022-10-06T17:59:16.273Z,16.09
2022-10-06T18:02:17.721Z,16.01
2022-10-06T18:05:19.350Z,15.99
2022-10-06T18:08:23.362Z,15.93
2022-10-06T18:11:35.970Z,15.79
2022-10-06T18:14:37.382Z,15.69
2022-10-06T18:17:38.790Z,15.55
2022-10-06T18:20:41.488Z,15.42
2022-10-06T18:23:43.373Z,15.34
2022-10-06T18:26:48.014Z,15.38
2022-10-06T18:29:49.588Z,15.28
2022-10-06T18:36:14.939Z,15.11
2022-10-06T18:39:16.754Z,15.08
2022-10-06T18:42:19.283Z,15.01
2022-10-06T18:45:39.729Z,14.90
2022-10-06T18:48:58.198Z,14.79
2022-10-06T18:52:01.595Z,14.78
2022-10-06T18:55:03.035Z,14.75
2022-10-06T18:58:05.154Z,14.69
2022-10-06T19:01:07.050Z,14.76
2022-10-06T19:04:10.050Z,14.81
2022-10-06T19:07:11.604Z,14.83
2022-10-06T19:10:13.030Z,14.76
2022-10-06T19:13:14.405Z,14.64
2022-10-06T19:16:17.310Z,14.63
2022-10-06T19:19:19.816Z,14.63
2022-10-06T19:22:24.602Z,14.64
2022-10-06T19:25:26.789Z,14.63
2022-10-06T19:28:33.203Z,14.57
2022-10-06T19:31:39.684Z,14.45
2022-10-06T19:34:43.719Z,14.37
2022-10-06T19:37:45.672Z,14.40
2022-10-06T19:40:47.883Z,14.39
2022-10-06T19:43:50.622Z,14.34
2022-10-06T19:46:52.992Z,14.35
2022-10-06T19:49:58.272Z,14.32
2022-10-06T19:53:01.692Z,14.34
2022-10-06T19:56:04.158Z,14.31
2022-10-06T19:59:06.206Z,14.26
2022-10-06T20:02:08.542Z,14.26
2022-10-06T20:05:14.810Z,14.24
2022-10-06T20:08:16.205Z,14.21
2022-10-06T20:11:21.696Z,14.10
2022-10-06T20:14:23.829Z,14.06
2022-10-06T20:17:25.218Z,14.04
2022-10-06T20:20:26.681Z,13.98
2022-10-06T20:23:28.058Z,13.87
2022-10-06T20:26:32.957Z,13.71
2022-10-06T20:29:34.771Z,13.57
2022-10-06T20:32:36.211Z,13.50
2022-10-06T20:35:37.620Z,13.43
2022-10-06T20:38:58.797Z,13.37
2022-10-06T20:42:00.210Z,13.31
2022-10-06T20:45:01.621Z,13.29
2022-10-06T20:48:03.089Z,13.21
2022-10-06T20:51:12.636Z,13.22
2022-10-06T20:54:14.232Z,13.26
2022-10-06T20:57:15.687Z,13.31
2022-10-06T21:00:17.745Z,13.20
2022-10-06T21:03:19.326Z,13.08
2022-10-06T21:06:23.647Z,13.05
2022-10-06T21:09:28.277Z,12.88
2022-10-06T21:12:29.887Z,12.64
2022-10-06T21:15:31.596Z,12.43
2022-10-06T21:18:34.211Z,12.36
2022-10-06T21:21:37.345Z,12.32
2022-10-06T21:24:38.920Z,12.32
2022-10-06T21:27:40.565Z,12.56
2022-10-06T21:30:44.294Z,12.75
2022-10-06T21:33:46.989Z,12.90
2022-10-06T21:36:48.691Z,12.77
2022-10-06T21:39:50.319Z,12.73
2022-10-06T21:42:51.883Z,12.79
2022-10-06T21:46:10.730Z,12.89
2022-10-06T21:49:25.446Z,12.92
2022-10-06T21:52:27.044Z,12.93
2022-10-06T21:55:28.636Z,12.98
2022-10-06T21:58:30.197Z,13.07
2022-10-06T22:01:34.801Z,13.13
2022-10-06T22:04:37.648Z,13.18
2022-10-06T22:07:39.232Z,13.25
2022-10-06T22:10:40.801Z,13.29
2022-10-06T22:13:45.368Z,13.34
2022-10-06T22:16:47.161Z,13.38
2022-10-06T22:19:48.730Z,13.40
2022-10-06T22:22:51.391Z,13.41
2022-10-06T22:25:57.653Z,13.40
2022-10-06T22:28:59.974Z,13.35
2022-10-06T22:32:01.560Z,13.39
2022-10-06T22:35:03.474Z,13.38
2022-10-06T22:38:05.051Z,13.28
2022-10-06T22:41:09.072Z,13.24
2022-10-06T22:44:10.707Z,13.26
2022-10-06T22:47:12.540Z,13.26
2022-10-06T22:50:14.118Z,13.23
2022-10-06T22:53:20.965Z,13.27
2022-10-06T22:56:22.918Z,13.31
2022-10-06T22:59:24.537Z,13.34
2022-10-06T23:02:26.114Z,13.26
2022-10-06T23:05:28.147Z,13.17
2022-10-06T23:08:34.855Z,13.28
2022-10-06T23:11:36.946Z,13.30
2022-10-06T23:14:38.519Z,13.31
2022-10-06T23:17:41.801Z,13.34
2022-10-06T23:20:43.729Z,13.36
2022-10-06T23:23:46.497Z,13.37
2022-10-06T23:26:48.071Z,13.34
2022-10-06T23:29:49.872Z,13.35
2022-10-06T23:32:51.510Z,13.41
2022-10-06T23:36:00.743Z,13.47
2022-10-06T23:39:02.327Z,13.49
2022-10-06T23:42:04.108Z,13.43
2022-10-06T23:45:07.736Z,13.44
2022-10-06T23:48:09.367Z,13.46
2022-10-06T23:51:13.528Z,13.36
2022-10-06T23:54:15.097Z,13.33
2022-10-06T23:57:16.725Z,13.24
